createdAt,value
2018-02-06T00:00:03.532Z,99.90
2018-02-06T00:02:32.325Z,99.90
2018-02-06T00:05:00.567Z,99.90
2018-02-06T00:07:29.958Z,99.90
2018-02-06T00:09:58.225Z,99.90
2018-02-06T00:12:26.460Z,99.90
2018-02-06T00:14:54.683Z,99.90
2018-02-06T00:17:22.948Z,99.90
2018-02-06T00:22:21.400Z,99.90
2018-02-06T00:24:50.902Z,99.90
2018-02-06T00:27:19.909Z,99.90
2018-02-06T00:29:48.135Z,99.90
2018-02-06T00:32:17.184Z,99.90
2018-02-06T00:34:45.434Z,99.90
2018-02-06T00:37:13.661Z,99.90
2018-02-06T00:42:11.416Z,99.90
2018-02-06T00:44:39.661Z,99.90
2018-02-06T00:47:07.916Z,99.90
2018-02-06T00:49:36.141Z,99.90
2018-02-06T00:52:04.364Z,99.90
2018-02-06T00:54:32.652Z,99.90
2018-02-06T00:57:00.887Z,99.90
2018-02-06T01:01:59.017Z,99.90
2018-02-06T01:04:27.270Z,99.90
2018-02-06T01:06:56.632Z,99.90
2018-02-06T01:09:24.911Z,99.90
2018-02-06T01:11:53.142Z,99.90
2018-02-06T01:14:22.879Z,99.90
2018-02-06T01:16:51.136Z,99.90
2018-02-06T01:19:19.756Z,99.90
2018-02-06T01:21:47.994Z,99.90
2018-02-06T01:24:16.268Z,99.90
2018-02-06T01:26:44.508Z,99.90
2018-02-06T01:29:12.798Z,99.90
2018-02-06T01:31:42.540Z,99.90
2018-02-06T01:34:10.781Z,99.90
2018-02-06T01:36:39.008Z,99.90
2018-02-06T01:44:06.190Z,99.90
2018-02-06T01:46:34.467Z,99.90
2018-02-06T01:49:03.470Z,99.90
2018-02-06T01:51:31.719Z,99.90
2018-02-06T01:56:30.967Z,99.90
2018-02-06T01:58:59.197Z,99.90
2018-02-06T02:01:27.465Z,99.90
2018-02-06T02:03:55.722Z,99.90
2018-02-06T02:06:24.812Z,99.90
2018-02-06T02:08:53.484Z,99.90
2018-02-06T02:11:21.708Z,99.90
2018-02-06T02:13:49.940Z,99.90
2018-02-06T02:16:18.968Z,99.90
2018-02-06T02:18:48.718Z,99.90
2018-02-06T02:21:16.949Z,99.90
2018-02-06T02:23:45.231Z,99.90
2018-02-06T02:26:14.239Z,99.90
2018-02-06T02:31:12.406Z,99.90
2018-02-06T02:33:40.626Z,99.90
2018-02-06T02:36:08.870Z,99.90
2018-02-06T02:38:38.635Z,99.90
2018-02-06T02:41:06.874Z,99.90
2018-02-06T04:40:08.051Z,99.90
2018-02-06T04:42:36.288Z,99.90
2018-02-06T04:45:04.956Z,99.90
2018-02-06T04:50:03.004Z,99.90
2018-02-06T04:52:31.679Z,99.90
2018-02-06T04:54:59.920Z,99.90
2018-02-06T04:57:28.935Z,99.90
2018-02-06T04:59:57.948Z,99.90
2018-02-06T05:02:27.683Z,99.90
2018-02-06T05:07:26.611Z,99.90
2018-02-06T05:09:56.352Z,99.90
2018-02-06T05:12:24.584Z,99.90
2018-02-06T05:14:54.172Z,99.90
2018-02-06T05:17:22.804Z,99.90
2018-02-06T05:19:51.027Z,99.90
2018-02-06T05:22:20.082Z,99.90
2018-02-06T05:27:18.180Z,99.90
2018-02-06T05:29:47.222Z,99.90
2018-02-06T05:32:15.447Z,99.90
2018-02-06T05:34:43.689Z,99.90
2018-02-06T05:37:12.724Z,99.90
2018-02-06T05:39:41.733Z,99.90
2018-02-06T05:42:11.091Z,99.90
2018-02-06T05:44:39.362Z,99.90
2018-02-06T05:47:08.356Z,99.90
2018-02-06T05:49:38.091Z,99.90
2018-02-06T05:52:06.382Z,99.90
2018-02-06T05:54:34.607Z,99.90
2018-02-06T05:57:02.832Z,99.90
2018-02-06T05:59:31.876Z,99.90
2018-02-06T06:02:00.103Z,99.90
2018-02-06T06:04:28.331Z,99.90
2018-02-06T06:06:56.604Z,99.90
2018-02-06T06:09:24.866Z,99.90
2018-02-06T06:11:53.096Z,99.90
2018-02-06T06:14:21.356Z,99.90
2018-02-06T06:16:50.348Z,99.90
2018-02-06T06:24:19.067Z,99.90
2018-02-06T06:26:48.074Z,99.90
2018-02-06T06:29:17.475Z,99.90
2018-02-06T06:31:46.096Z,99.90
2018-02-06T06:34:14.334Z,99.90
2018-02-06T06:39:12.500Z,99.90
2018-02-06T06:41:40.735Z,99.90
2018-02-06T06:49:07.931Z,99.90
2018-02-06T06:51:36.951Z,99.90
2018-02-06T06:54:06.312Z,99.90
2018-02-06T06:56:34.543Z,99.90
2018-02-06T06:59:02.819Z,99.90
2018-02-06T07:01:31.096Z,99.90
2018-02-06T07:03:59.277Z,99.90
2018-02-06T07:06:29.039Z,99.90
2018-02-06T07:08:57.280Z,99.90
2018-02-06T07:11:25.511Z,99.90
2018-02-06T07:16:24.044Z,99.90
2018-02-06T07:18:52.285Z,99.90
2018-02-06T07:21:20.580Z,99.90
2018-02-06T07:28:47.768Z,99.90
2018-02-06T07:31:15.988Z,99.90
2018-02-06T07:33:44.220Z,99.90
2018-02-06T07:36:13.997Z,99.90
2018-02-06T07:38:42.231Z,99.90
2018-02-06T07:41:10.459Z,99.90
2018-02-06T07:43:39.503Z,99.90
2018-02-06T07:46:07.733Z,99.90
2018-02-06T07:48:37.096Z,99.90
2018-02-06T07:51:05.372Z,99.90
2018-02-06T07:53:33.599Z,99.90
2018-02-06T07:56:01.828Z,99.90
2018-02-06T07:58:30.104Z,99.90
2018-02-06T08:00:58.335Z,99.90
2018-02-06T08:03:27.354Z,99.90
2018-02-06T08:08:25.484Z,99.90
2018-02-06T08:13:23.626Z,99.90
2018-02-06T08:15:52.311Z,99.90
2018-02-06T08:18:20.541Z,99.90
2018-02-06T08:20:48.803Z,99.90
2018-02-06T08:23:17.059Z,99.90
2018-02-06T08:25:45.295Z,99.90
2018-02-06T08:28:13.960Z,99.90
2018-02-06T08:30:42.974Z,99.90
2018-02-06T08:35:41.355Z,99.90
2018-02-06T08:38:09.584Z,99.90
2018-02-06T08:40:37.807Z,94.70
2018-02-06T08:45:35.548Z,81.50
2018-02-06T08:48:05.287Z,76.80
2018-02-06T08:50:33.556Z,71.10
2018-02-06T08:53:01.779Z,66.00
2018-02-06T08:55:31.524Z,59.60
2018-02-06T08:57:59.813Z,56.70
2018-02-06T09:02:57.918Z,51.80
2018-02-06T09:05:26.218Z,49.80
2018-02-06T09:07:54.482Z,48.00
2018-02-06T09:10:23.108Z,45.70
2018-02-06T09:12:51.386Z,44.50
2018-02-06T09:15:19.615Z,43.20
2018-02-06T09:17:47.857Z,43.40
2018-02-06T09:20:16.887Z,42.20
2018-02-06T09:22:45.888Z,41.90
2018-02-06T09:27:45.096Z,42.70
2018-02-06T09:30:13.338Z,43.30
2018-02-06T09:32:41.578Z,43.00
2018-02-06T09:37:39.303Z,42.20
2018-02-06T09:40:08.299Z,43.00
2018-02-06T09:42:36.571Z,42.80
2018-02-06T09:45:04.818Z,41.20
2018-02-06T09:47:33.048Z,40.30
2018-02-06T09:50:01.313Z,38.80
2018-02-06T09:52:30.686Z,37.30
2018-02-06T09:54:58.920Z,36.40
2018-02-06T09:57:27.189Z,35.60
2018-02-06T09:59:55.430Z,35.30
2018-02-06T10:02:23.681Z,35.90
2018-02-06T10:04:51.993Z,37.50
2018-02-06T10:07:21.006Z,39.30
2018-02-06T10:12:19.139Z,42.30
2018-02-06T10:14:47.373Z,44.40
2018-02-06T10:17:15.604Z,46.70
2018-02-06T10:19:44.087Z,48.80
2018-02-06T10:22:13.482Z,50.30
2018-02-06T10:24:42.501Z,53.80
2018-02-06T10:27:10.782Z,55.60
2018-02-06T10:29:40.162Z,58.00
2018-02-06T10:32:08.386Z,59.80
2018-02-06T10:34:37.342Z,62.70
2018-02-06T10:39:35.054Z,67.30
2018-02-06T10:42:04.470Z,69.50
2018-02-06T10:47:02.552Z,74.60
2018-02-06T10:49:30.832Z,77.00
2018-02-06T10:54:28.934Z,83.00
2018-02-06T10:56:58.303Z,86.10
2018-02-06T10:59:27.306Z,88.20
2018-02-06T11:01:55.561Z,90.90
2018-02-06T11:04:23.843Z,92.60
2018-02-06T11:06:52.073Z,94.10
2018-02-06T11:09:20.313Z,95.40
2018-02-06T11:11:50.087Z,96.60
2018-02-06T11:14:19.088Z,97.30
2018-02-06T11:16:48.842Z,99.00
2018-02-06T11:19:18.619Z,99.90
2018-02-06T11:21:46.859Z,99.90
2018-02-06T11:24:16.254Z,99.90
2018-02-06T11:26:44.549Z,99.90
2018-02-06T11:29:12.830Z,99.90
2018-02-06T11:34:10.636Z,99.90
2018-02-06T11:36:39.638Z,99.90
2018-02-06T11:39:09.022Z,99.90
2018-02-06T11:41:37.279Z,99.90
2018-02-06T11:44:07.015Z,99.90
2018-02-06T11:46:35.251Z,99.90
2018-02-06T11:49:03.512Z,99.90
2018-02-06T11:51:32.520Z,99.90
2018-02-06T11:54:01.906Z,99.90
2018-02-06T11:56:30.182Z,99.90
2018-02-06T11:58:58.403Z,99.90
2018-02-06T12:01:26.646Z,99.90
2018-02-06T12:03:54.913Z,99.90
2018-02-06T12:06:23.154Z,99.90
2018-02-06T12:08:51.387Z,99.90
2018-02-06T12:11:20.435Z,99.90
2018-02-06T12:13:48.682Z,99.90
2018-02-06T12:16:16.936Z,99.90
2018-02-06T12:18:45.227Z,99.90
2018-02-06T12:21:13.471Z,99.90
2018-02-06T12:23:41.726Z,99.90
2018-02-06T12:26:10.156Z,99.90
2018-02-06T12:28:39.158Z,99.90
2018-02-06T12:31:07.406Z,99.90
2018-02-06T12:33:35.686Z,99.90
2018-02-06T12:36:04.311Z,99.90
2018-02-06T12:38:32.547Z,99.90
2018-02-06T12:41:00.834Z,99.90
2018-02-06T12:43:29.876Z,99.90
2018-02-06T12:48:27.971Z,99.90
2018-02-06T12:50:57.327Z,99.90
2018-02-06T12:53:26.320Z,99.90
2018-02-06T12:58:24.458Z,99.90
2018-02-06T13:03:22.951Z,99.90
2018-02-06T13:05:51.206Z,99.90
2018-02-06T13:08:19.437Z,99.90
2018-02-06T13:10:49.234Z,99.90
2018-02-06T13:13:17.486Z,99.90
2018-02-06T13:15:45.740Z,99.90
2018-02-06T13:18:15.007Z,99.90
2018-02-06T13:20:43.659Z,99.90
2018-02-06T13:23:12.296Z,99.90
2018-02-06T13:25:40.555Z,99.90
2018-02-06T13:28:08.778Z,99.90
2018-02-06T13:30:37.018Z,99.90
2018-02-06T13:33:06.067Z,99.90
2018-02-06T13:35:34.318Z,99.90
2018-02-06T13:38:02.566Z,99.90
2018-02-06T13:43:00.715Z,99.90
2018-02-06T13:45:28.948Z,99.90
2018-02-06T13:47:57.230Z,99.90
2018-02-06T13:50:25.470Z,99.90
2018-02-06T13:52:53.710Z,99.90
2018-02-06T13:55:21.984Z,99.90
2018-02-06T13:57:53.163Z,99.90
2018-02-06T14:00:21.858Z,99.90
2018-02-06T14:02:50.124Z,99.90
2018-02-06T14:05:18.369Z,99.90
2018-02-06T14:10:16.899Z,99.90
2018-02-06T14:15:15.031Z,99.90
2018-02-06T14:17:44.040Z,99.90
2018-02-06T14:20:12.283Z,99.90
2018-02-06T14:25:10.442Z,99.90
2018-02-06T14:27:39.575Z,99.90
2018-02-06T14:30:08.608Z,99.90
2018-02-06T14:32:36.839Z,99.90
2018-02-06T14:35:05.083Z,99.90
2018-02-06T14:37:33.360Z,99.90
2018-02-06T14:40:02.384Z,99.90
2018-02-06T14:42:31.755Z,99.90
2018-02-06T14:45:00.043Z,99.90
2018-02-06T14:47:28.251Z,99.90
2018-02-06T14:49:56.483Z,99.90
2018-02-06T14:52:24.762Z,99.90
2018-02-06T14:54:53.777Z,99.90
2018-02-06T14:57:22.003Z,99.90
2018-02-06T14:59:50.271Z,99.90
2018-02-06T15:02:18.504Z,99.90
2018-02-06T15:04:46.755Z,99.90
2018-02-06T15:07:15.263Z,99.90
2018-02-06T15:09:44.279Z,99.90
2018-02-06T15:12:12.524Z,99.90
2018-02-06T15:14:40.804Z,99.90
2018-02-06T15:17:09.100Z,99.90
2018-02-06T15:19:37.298Z,99.90
2018-02-06T15:22:05.955Z,99.90
2018-02-06T15:24:34.206Z,99.90
2018-02-06T15:27:03.951Z,99.90
2018-02-06T15:29:32.231Z,99.90
2018-02-06T15:32:01.238Z,99.90
2018-02-06T15:34:29.515Z,99.90
2018-02-06T15:36:57.890Z,99.90
2018-02-06T15:39:26.891Z,99.90
2018-02-06T15:41:55.892Z,99.90
2018-02-06T15:44:24.175Z,99.90
2018-02-06T15:46:53.932Z,99.90
2018-02-06T15:49:22.164Z,99.90
2018-02-06T15:51:50.439Z,99.90
2018-02-06T15:54:18.854Z,99.90
2018-02-06T15:56:47.095Z,99.90
2018-02-06T15:59:15.787Z,99.90
2018-02-06T16:01:45.167Z,99.90
2018-02-06T16:06:44.091Z,99.90
2018-02-06T16:09:13.707Z,99.90
2018-02-06T16:11:42.117Z,99.90
2018-02-06T16:14:10.340Z,99.90
2018-02-06T16:16:38.586Z,99.90
2018-02-06T16:19:07.616Z,99.90
2018-02-06T16:21:35.856Z,99.90
2018-02-06T16:24:04.111Z,99.90
2018-02-06T16:26:33.908Z,99.90
2018-02-06T16:29:02.907Z,99.90
2018-02-06T16:31:32.012Z,99.90
2018-02-06T16:34:00.412Z,99.90
2018-02-06T16:38:58.519Z,99.90
2018-02-06T16:41:26.944Z,99.90
2018-02-06T16:43:55.195Z,99.90
2018-02-06T16:46:23.431Z,99.90
2018-02-06T16:48:51.867Z,99.90
2018-02-06T16:51:20.183Z,99.90
2018-02-06T16:53:49.928Z,99.90
2018-02-06T16:56:18.402Z,99.90
2018-02-06T17:03:45.660Z,99.90
2018-02-06T17:06:13.904Z,99.90
2018-02-06T17:08:42.262Z,99.90
2018-02-06T17:11:10.528Z,99.90
2018-02-06T17:13:39.927Z,99.90
2018-02-06T17:16:08.171Z,99.90
2018-02-06T17:18:37.220Z,99.90
2018-02-06T17:21:05.464Z,99.90
2018-02-06T17:23:34.862Z,99.90
2018-02-06T17:26:03.121Z,99.90
2018-02-06T17:31:01.280Z,99.90
2018-02-06T17:35:59.030Z,99.90
2018-02-06T17:38:27.263Z,99.90
2018-02-06T17:40:56.319Z,99.90
2018-02-06T17:43:24.565Z,99.90
2018-02-06T17:45:53.563Z,99.90
2018-02-06T17:48:21.823Z,99.90
2018-02-06T17:53:19.927Z,99.90
2018-02-06T17:55:48.191Z,99.90
2018-02-06T17:58:16.434Z,99.90
2018-02-06T18:00:44.667Z,99.90
2018-02-06T18:03:12.950Z,99.90
2018-02-06T18:08:11.056Z,99.90
2018-02-06T18:10:39.328Z,99.90
2018-02-06T18:13:07.574Z,99.90
2018-02-06T18:15:35.807Z,99.90
2018-02-06T18:18:04.083Z,99.90
2018-02-06T18:20:33.086Z,99.90
2018-02-06T18:23:02.090Z,99.90
2018-02-06T18:25:31.127Z,99.90
2018-02-06T18:30:29.598Z,99.90
2018-02-06T18:32:57.863Z,99.90
2018-02-06T18:35:26.096Z,99.90
2018-02-06T18:37:54.328Z,99.90
2018-02-06T18:40:22.606Z,99.90
2018-02-06T18:42:50.971Z,99.90
2018-02-06T18:45:19.176Z,99.90
2018-02-06T18:47:47.513Z,99.90
2018-02-06T18:50:17.256Z,99.90
2018-02-06T18:52:47.028Z,99.90
2018-02-06T18:55:15.291Z,99.90
2018-02-06T18:57:43.967Z,99.90
2018-02-06T19:00:13.019Z,99.90
2018-02-06T19:02:42.043Z,99.90
2018-02-06T19:05:11.036Z,99.90
2018-02-06T19:07:39.304Z,99.90
2018-02-06T19:10:07.536Z,99.90
2018-02-06T19:12:35.782Z,99.90
2018-02-06T19:15:04.075Z,99.90
2018-02-06T19:17:32.419Z,99.90
2018-02-06T19:20:00.623Z,99.90
2018-02-06T19:22:28.918Z,99.90
2018-02-06T19:24:58.314Z,99.90
2018-02-06T19:27:27.526Z,99.90
2018-02-06T19:29:56.693Z,99.90
2018-02-06T19:32:25.003Z,99.90
2018-02-06T19:37:23.112Z,99.90
2018-02-06T19:39:51.342Z,99.90
2018-02-06T19:42:19.680Z,99.90
2018-02-06T19:44:48.019Z,99.90
2018-02-06T19:47:17.057Z,99.90
2018-02-06T19:49:45.402Z,99.90
2018-02-06T19:52:15.385Z,99.90
2018-02-06T19:54:43.635Z,99.90
2018-02-06T19:59:41.683Z,99.90
2018-02-06T20:02:10.032Z,99.90
2018-02-06T20:04:39.634Z,99.90
2018-02-06T20:07:08.712Z,99.90
2018-02-06T20:09:36.886Z,99.90
2018-02-06T20:12:05.124Z,99.90
2018-02-06T20:14:34.910Z,99.90
2018-02-06T20:17:03.167Z,99.90
2018-02-06T20:19:31.453Z,99.90
2018-02-06T20:21:59.745Z,99.90
2018-02-06T20:26:57.931Z,99.90
2018-02-06T20:29:26.954Z,99.90
2018-02-06T20:31:55.179Z,99.90
2018-02-06T20:34:23.443Z,99.90
2018-02-06T20:36:51.759Z,99.90
2018-02-06T20:39:21.537Z,99.90
2018-02-06T20:41:51.326Z,99.90
2018-02-06T20:44:19.637Z,99.90
2018-02-06T20:49:17.853Z,99.90
2018-02-06T20:51:46.145Z,99.90
2018-02-06T20:56:44.734Z,99.90
2018-02-06T20:59:13.075Z,99.90
2018-02-06T21:01:41.329Z,99.90
2018-02-06T21:04:09.620Z,99.90
2018-02-06T21:06:39.419Z,99.90
2018-02-06T21:11:38.276Z,99.90
2018-02-06T21:14:07.286Z,99.90
2018-02-06T21:16:37.075Z,99.90
2018-02-06T21:19:05.350Z,99.90
2018-02-06T21:21:35.075Z,99.90
2018-02-06T21:24:03.315Z,99.90
2018-02-06T21:28:11.931Z,99.90
2018-02-06T21:30:40.164Z,99.90
2018-02-06T21:33:08.626Z,99.90
2018-02-06T21:35:37.336Z,99.90
2018-02-06T21:38:07.076Z,99.90
2018-02-06T21:40:36.895Z,99.90
2018-02-06T21:43:05.187Z,99.90
2018-02-06T21:45:33.463Z,99.90
2018-02-06T21:50:33.698Z,99.90
2018-02-06T21:53:02.704Z,99.90
2018-02-06T22:00:35.188Z,99.90
2018-02-06T22:03:03.416Z,99.90
2018-02-06T22:05:31.661Z,99.90
2018-02-06T22:08:00.790Z,99.90
2018-02-06T22:10:29.423Z,99.90
2018-02-06T22:12:57.649Z,99.90
2018-02-06T22:17:56.225Z,99.90
2018-02-06T22:20:24.458Z,99.90
2018-02-06T22:25:22.975Z,99.90
2018-02-06T22:27:51.264Z,99.90
2018-02-06T22:30:19.544Z,99.90
2018-02-06T22:32:48.182Z,99.90
2018-02-06T22:35:16.424Z,99.90
2018-02-06T22:37:45.653Z,99.90
2018-02-06T22:40:15.053Z,99.90
2018-02-06T22:42:43.294Z,99.90
2018-02-06T22:45:11.624Z,99.90
2018-02-06T22:47:39.856Z,99.90
2018-02-06T22:54:20.330Z,99.90
2018-02-06T22:56:48.566Z,99.90
2018-02-06T23:04:16.547Z,99.90
2018-02-06T23:06:45.943Z,99.90
2018-02-06T23:09:15.004Z,99.90
2018-02-06T23:11:44.012Z,99.90
2018-02-06T23:14:13.408Z,99.90
2018-02-06T23:16:42.835Z,99.90
2018-02-06T23:19:12.594Z,99.90
2018-02-06T23:21:40.829Z,99.90
2018-02-06T23:24:09.099Z,99.90
2018-02-06T23:26:37.328Z,99.90
2018-02-06T23:29:05.563Z,99.90
2018-02-06T23:31:33.854Z,99.90
2018-02-06T23:36:31.563Z,99.90
2018-02-06T23:38:59.878Z,99.90
2018-02-06T23:41:28.117Z,99.90
2018-02-06T23:46:27.053Z,99.90
2018-02-06T23:48:56.763Z,99.90
2018-02-06T23:51:25.006Z,99.90
2018-02-06T23:53:54.054Z,99.90
2018-02-06T23:56:23.052Z,99.90
2018-02-06T23:58:52.063Z,99.90
